Terminal Aerodrome Forecast
Issued by NWS

Home | Current Version | Previous Version | Text Only | Print | Product List | Glossary On
Versions: 1 2 3 4 5 6 7 8 9 10 11 12 13 14 15 16 17 18 19 20
000
FTUS43 KSGF 240800 AAB
TAFJLN
TAF AMD
KJLN 240841Z 2409/2506 16011G20KT 4SM RA BR VCTS FEW030 SCT050CB
      OVC100 WS020/18045KT
      TEMPO 2409/2412 2SM TSRA BR SCT007 OVC015CB
     FM241200 17014G22KT 4SM -RA BR VCTS SCT007 OVC015CB
     FM241800 17016G24KT 6SM -SHRA BR VCTS SCT020 OVC035CB
      TEMPO 2422/2502 4SM -TSRA OVC020CB=

USA.gov is the U.S. government's official web portal to all federal, state and local government web resources and services.